チューク諸島 の空港の天気 - METARとTAF

チューク国際空港 ( PTKK / TKK ) - ミクロネシア連邦 チューク諸島
飛行場実況気象(Metar)
観測時間01/19 20:50 +10 (01/19 10:50 UTC)
風向・風速北北東 4m/s
視程10km以上
天気現象
少しの雲 雲底高度 430m
全天の8割程度の雲 雲底高度 3660m
全天を覆う雲 雲底高度 8530m
気温27.9℃
湿度86%
気圧1009.6hPa
METARPTKK 191050Z 03008KT 15SM FEW014 BKN120 OVC280 28/25 A2981 RMK SLP096 T02790253
過去の天気等 Google飛行場航空写真 Wunderground天気予報

過去48時間のMETAR

飛行場予報(TAF)
発表時間: 1/19 15:27 +10 (1/19 05:27 UTC)
予報対象時間: 19日16時 +10 ~ 20日16時 +10
風向・風速東北東 6m/s
視程10km以上
天気現象周辺でしゅう雨
全天の4割程度の雲 雲底高度 430m
全天の4割程度の雲 雲底高度 1520m
全天の8割程度の雲 雲底高度 4270m
PTKK 190527Z 1906/2006 06012KT P6SM VCSH SCT014 SCT050 BKN140